Main page
METAR-TAF:

METAR-TAF

Airports :

Hamad International Airport

Doha, Qatar

latitude: 25-16-23N, longitude: 51-36-29E, elevation: 4 m

Current weather observation

The report was made 53 minutes ago, at 11:00 UTC
Wind 4 kt from the Northeast
Temperature 43°C
Humidity 15%
Pressure 997 hPa
Visibility 10 km or more
no clouds below 1500 m and no cumulonimbus

METAR: OTHH 231100Z 04004KT CAVOK 43/11 Q0997 NOSIG

Time: 14:53 (11:53 UTC)

Forecast

The report was made 6 hours and 39 minutes ago, at 05:14 UTC
Forecast valid from 23 at 06 UTC to 24 at 12 UTC
Wind 7 kt from the East
Visibility: 8000 m
Temporary
from 23 at 06 UTC to 23 at 17 UTC
Wind 7 kt from the South/Southeast
Temporary
from 23 at 19 UTC to 24 at 03 UTC
Wind 3 kt from variable directions
Visibility: 4900 m
haze,

TAF: OTHH 230514Z 2306/2412 08007KT 8000 NSC TEMPO 2306/2317 15007KT TEMPO 2319/2403 VRB03KT 4900 HZ

Weather observations and forecasts of more than 4000 airports (METAR and TAF reports).

The available stations are represented by yellow and red dots on the map.

Hover mouse over dot to see the name of the station.

Then click to see weather observations and forecasts.

To change the map : click on the green buttons with a black cross to zoom in, on the green button with a dash to zoom out, or on the green arrows for adjacent maps.


METAR-TAF: